sensor_id;sensor_type;location;lat;lon;timestamp;temperature;humidity
8459;DHT22;4266;48.816;9.154;2023-02-24T00:00:54;9.40;99.90
8459;DHT22;4266;48.816;9.154;2023-02-24T00:03:20;9.50;99.90
8459;DHT22;4266;48.816;9.154;2023-02-24T00:05:46;9.50;99.90
8459;DHT22;4266;48.816;9.154;2023-02-24T00:08:13;9.50;99.90
8459;DHT22;4266;48.816;9.154;2023-02-24T00:10:39;9.50;99.90
8459;DHT22;4266;48.816;9.154;2023-02-24T00:13:05;9.60;99.90
8459;DHT22;4266;48.816;9.154;2023-02-24T00:15:30;9.50;99.90
8459;DHT22;4266;48.816;9.154;2023-02-24T00:17:56;9.50;99.90
8459;DHT22;4266;48.816;9.154;2023-02-24T00:20:22;9.40;99.90
8459;DHT22;4266;48.816;9.154;2023-02-24T00:22:47;9.50;99.90
8459;DHT22;4266;48.816;9.154;2023-02-24T00:25:13;9.50;99.90
8459;DHT22;4266;48.816;9.154;2023-02-24T00:27:39;9.50;99.90
8459;DHT22;4266;48.816;9.154;2023-02-24T00:30:05;9.40;99.90
8459;DHT22;4266;48.816;9.154;2023-02-24T00:32:32;9.40;99.90
8459;DHT22;4266;48.816;9.154;2023-02-24T00:34:57;9.50;99.90
8459;DHT22;4266;48.816;9.154;2023-02-24T00:37:23;9.40;99.90
8459;DHT22;4266;48.816;9.154;2023-02-24T00:39:49;9.40;99.90
8459;DHT22;4266;48.816;9.154;2023-02-24T00:42:14;9.40;99.90
8459;DHT22;4266;48.816;9.154;2023-02-24T00:44:43;9.40;99.90
8459;DHT22;4266;48.816;9.154;2023-02-24T00:47:09;9.40;99.90
8459;DHT22;4266;48.816;9.154;2023-02-24T00:49:35;9.30;99.90
8459;DHT22;4266;48.816;9.154;2023-02-24T00:52:00;9.30;99.90
8459;DHT22;4266;48.816;9.154;2023-02-24T00:54:26;9.30;99.90
8459;DHT22;4266;48.816;9.154;2023-02-24T00:56:52;9.40;99.90
8459;DHT22;4266;48.816;9.154;2023-02-24T00:59:17;9.40;99.90
8459;DHT22;4266;48.816;9.154;2023-02-24T01:01:43;9.50;99.90
8459;DHT22;4266;48.816;9.154;2023-02-24T01:04:10;9.40;99.90
8459;DHT22;4266;48.816;9.154;2023-02-24T01:06:40;9.40;99.90
8459;DHT22;4266;48.816;9.154;2023-02-24T01:09:05;9.40;99.90
8459;DHT22;4266;48.816;9.154;2023-02-24T01:11:31;9.30;99.90
8459;DHT22;4266;48.816;9.154;2023-02-24T01:14:04;9.20;99.90
8459;DHT22;4266;48.816;9.154;2023-02-24T01:16:29;9.20;99.90
8459;DHT22;4266;48.816;9.154;2023-02-24T01:18:55;9.20;99.90
8459;DHT22;4266;48.816;9.154;2023-02-24T01:21:22;9.20;99.90
8459;DHT22;4266;48.816;9.154;2023-02-24T01:23:47;9.20;99.90
8459;DHT22;4266;48.816;9.154;2023-02-24T01:26:13;9.30;99.90
8459;DHT22;4266;48.816;9.154;2023-02-24T01:28:39;9.20;99.90
8459;DHT22;4266;48.816;9.154;2023-02-24T01:31:05;9.30;99.90
8459;DHT22;4266;48.816;9.154;2023-02-24T01:33:31;9.20;99.90
8459;DHT22;4266;48.816;9.154;2023-02-24T01:35:56;9.20;99.90
8459;DHT22;4266;48.816;9.154;2023-02-24T01:38:22;9.30;99.90
8459;DHT22;4266;48.816;9.154;2023-02-24T01:40:54;9.20;99.90
8459;DHT22;4266;48.816;9.154;2023-02-24T01:43:19;9.20;99.90
8459;DHT22;4266;48.816;9.154;2023-02-24T01:45:46;9.10;99.90
8459;DHT22;4266;48.816;9.154;2023-02-24T01:48:11;9.10;99.90
8459;DHT22;4266;48.816;9.154;2023-02-24T01:50:38;9.20;99.90
8459;DHT22;4266;48.816;9.154;2023-02-24T01:53:05;9.10;99.90
8459;DHT22;4266;48.816;9.154;2023-02-24T01:55:36;9.10;99.90
8459;DHT22;4266;48.816;9.154;2023-02-24T01:58:02;9.10;99.90
8459;DHT22;4266;48.816;9.154;2023-02-24T02:00:26;9.10;99.90
8459;DHT22;4266;48.816;9.154;2023-02-24T02:02:57;9.10;99.90
8459;DHT22;4266;48.816;9.154;2023-02-24T02:05:22;9.00;99.90
8459;DHT22;4266;48.816;9.154;2023-02-24T02:07:48;9.10;99.90
8459;DHT22;4266;48.816;9.154;2023-02-24T02:10:14;9.10;99.90
8459;DHT22;4266;48.816;9.154;2023-02-24T02:12:40;9.00;99.90
8459;DHT22;4266;48.816;9.154;2023-02-24T02:15:06;8.90;99.90
8459;DHT22;4266;48.816;9.154;2023-02-24T02:17:42;9.00;99.90
8459;DHT22;4266;48.816;9.154;2023-02-24T02:20:44;9.00;99.90
8459;DHT22;4266;48.816;9.154;2023-02-24T02:26:14;8.90;99.90
8459;DHT22;4266;48.816;9.154;2023-02-24T02:29:19;9.00;99.90
8459;DHT22;4266;48.816;9.154;2023-02-24T02:36:40;8.90;99.90
8459;DHT22;4266;48.816;9.154;2023-02-24T02:39:09;8.80;99.90
8459;DHT22;4266;48.816;9.154;2023-02-24T02:41:30;8.80;99.90
8459;DHT22;4266;48.816;9.154;2023-02-24T02:44:15;8.80;99.90
8459;DHT22;4266;48.816;9.154;2023-02-24T02:49:28;8.80;99.90
8459;DHT22;4266;48.816;9.154;2023-02-24T02:51:51;8.70;99.90
8459;DHT22;4266;48.816;9.154;2023-02-24T02:57:00;8.80;99.90
8459;DHT22;4266;48.816;9.154;2023-02-24T02:59:24;8.70;99.90
8459;DHT22;4266;48.816;9.154;2023-02-24T03:01:50;8.60;99.90
8459;DHT22;4266;48.816;9.154;2023-02-24T03:04:16;8.60;99.90
8459;DHT22;4266;48.816;9.154;2023-02-24T03:06:44;8.50;99.90
8459;DHT22;4266;48.816;9.154;2023-02-24T03:09:10;8.50;99.90
8459;DHT22;4266;48.816;9.154;2023-02-24T03:11:36;8.50;99.90
8459;DHT22;4266;48.816;9.154;2023-02-24T03:14:02;8.60;99.90
8459;DHT22;4266;48.816;9.154;2023-02-24T03:16:28;8.60;99.90
8459;DHT22;4266;48.816;9.154;2023-02-24T03:18:57;8.60;99.90
8459;DHT22;4266;48.816;9.154;2023-02-24T03:21:26;8.70;99.90
8459;DHT22;4266;48.816;9.154;2023-02-24T03:23:50;8.70;99.90
8459;DHT22;4266;48.816;9.154;2023-02-24T03:26:20;8.60;99.90
8459;DHT22;4266;48.816;9.154;2023-02-24T03:28:57;8.50;99.90
8459;DHT22;4266;48.816;9.154;2023-02-24T03:31:25;8.60;99.90
8459;DHT22;4266;48.816;9.154;2023-02-24T03:33:53;8.60;99.90
8459;DHT22;4266;48.816;9.154;2023-02-24T03:36:15;8.50;99.90
8459;DHT22;4266;48.816;9.154;2023-02-24T03:38:41;8.50;99.90
8459;DHT22;4266;48.816;9.154;2023-02-24T03:41:07;8.50;99.90
8459;DHT22;4266;48.816;9.154;2023-02-24T03:43:33;8.50;99.90
8459;DHT22;4266;48.816;9.154;2023-02-24T03:45:58;8.60;99.90
8459;DHT22;4266;48.816;9.154;2023-02-24T03:48:24;8.60;99.90
8459;DHT22;4266;48.816;9.154;2023-02-24T03:50:50;8.80;99.90
8459;DHT22;4266;48.816;9.154;2023-02-24T03:56:13;8.80;99.90
8459;DHT22;4266;48.816;9.154;2023-02-24T03:58:51;8.70;99.90
8459;DHT22;4266;48.816;9.154;2023-02-24T04:01:35;8.70;99.90
8459;DHT22;4266;48.816;9.154;2023-02-24T04:04:02;8.60;99.90
8459;DHT22;4266;48.816;9.154;2023-02-24T04:06:30;8.70;99.90
8459;DHT22;4266;48.816;9.154;2023-02-24T04:08:58;8.70;99.90
8459;DHT22;4266;48.816;9.154;2023-02-24T04:11:25;8.60;99.90
8459;DHT22;4266;48.816;9.154;2023-02-24T04:13:50;8.50;99.90
8459;DHT22;4266;48.816;9.154;2023-02-24T04:16:20;8.50;99.90
8459;DHT22;4266;48.816;9.154;2023-02-24T04:18:46;8.60;99.90
8459;DHT22;4266;48.816;9.154;2023-02-24T04:21:10;8.60;99.90
8459;DHT22;4266;48.816;9.154;2023-02-24T04:23:37;8.60;99.90
8459;DHT22;4266;48.816;9.154;2023-02-24T04:26:01;8.60;99.90
8459;DHT22;4266;48.816;9.154;2023-02-24T04:28:27;8.60;99.90
8459;DHT22;4266;48.816;9.154;2023-02-24T04:30:54;8.60;99.90
8459;DHT22;4266;48.816;9.154;2023-02-24T04:33:19;8.50;99.90
8459;DHT22;4266;48.816;9.154;2023-02-24T04:35:45;8.50;99.90
8459;DHT22;4266;48.816;9.154;2023-02-24T04:38:10;8.50;99.90
8459;DHT22;4266;48.816;9.154;2023-02-24T04:40:37;8.50;99.90
8459;DHT22;4266;48.816;9.154;2023-02-24T04:43:02;8.50;99.90
8459;DHT22;4266;48.816;9.154;2023-02-24T04:45:29;8.40;99.90
8459;DHT22;4266;48.816;9.154;2023-02-24T04:47:56;8.50;99.90
8459;DHT22;4266;48.816;9.154;2023-02-24T04:50:22;8.50;99.90
8459;DHT22;4266;48.816;9.154;2023-02-24T04:52:49;8.50;99.90
8459;DHT22;4266;48.816;9.154;2023-02-24T04:55:16;8.40;99.90
8459;DHT22;4266;48.816;9.154;2023-02-24T04:57:42;8.40;99.90
8459;DHT22;4266;48.816;9.154;2023-02-24T05:00:10;8.40;99.90
8459;DHT22;4266;48.816;9.154;2023-02-24T05:02:38;8.40;99.90
8459;DHT22;4266;48.816;9.154;2023-02-24T05:05:05;8.40;99.90
8459;DHT22;4266;48.816;9.154;2023-02-24T05:07:31;8.40;99.90
8459;DHT22;4266;48.816;9.154;2023-02-24T05:09:56;8.40;99.90
8459;DHT22;4266;48.816;9.154;2023-02-24T05:12:23;8.50;99.90
8459;DHT22;4266;48.816;9.154;2023-02-24T05:14:48;8.50;99.90
8459;DHT22;4266;48.816;9.154;2023-02-24T05:17:15;8.40;99.90
8459;DHT22;4266;48.816;9.154;2023-02-24T05:19:42;8.40;99.90
8459;DHT22;4266;48.816;9.154;2023-02-24T05:22:13;8.30;99.90
8459;DHT22;4266;48.816;9.154;2023-02-24T05:24:39;8.30;99.90
8459;DHT22;4266;48.816;9.154;2023-02-24T05:27:05;8.20;99.90
8459;DHT22;4266;48.816;9.154;2023-02-24T05:29:32;8.30;99.90
8459;DHT22;4266;48.816;9.154;2023-02-24T05:31:58;8.30;99.90
8459;DHT22;4266;48.816;9.154;2023-02-24T05:34:24;8.30;99.90
8459;DHT22;4266;48.816;9.154;2023-02-24T05:36:49;8.40;99.90
8459;DHT22;4266;48.816;9.154;2023-02-24T05:39:15;8.20;99.90
8459;DHT22;4266;48.816;9.154;2023-02-24T05:41:41;8.20;99.90
8459;DHT22;4266;48.816;9.154;2023-02-24T05:44:11;8.20;99.90
8459;DHT22;4266;48.816;9.154;2023-02-24T05:46:36;8.20;99.90
8459;DHT22;4266;48.816;9.154;2023-02-24T05:49:03;8.30;99.90
8459;DHT22;4266;48.816;9.154;2023-02-24T05:51:28;8.30;99.90
8459;DHT22;4266;48.816;9.154;2023-02-24T05:53:52;8.20;99.90
8459;DHT22;4266;48.816;9.154;2023-02-24T05:56:18;8.30;99.90
8459;DHT22;4266;48.816;9.154;2023-02-24T05:58:44;8.20;99.90
8459;DHT22;4266;48.816;9.154;2023-02-24T06:01:11;8.20;99.90
8459;DHT22;4266;48.816;9.154;2023-02-24T06:03:36;8.20;99.90
8459;DHT22;4266;48.816;9.154;2023-02-24T06:06:02;8.20;99.90
8459;DHT22;4266;48.816;9.154;2023-02-24T06:08:28;8.20;99.90
8459;DHT22;4266;48.816;9.154;2023-02-24T06:10:53;8.20;99.90
8459;DHT22;4266;48.816;9.154;2023-02-24T06:13:20;8.20;99.90
8459;DHT22;4266;48.816;9.154;2023-02-24T06:15:46;8.20;99.90
8459;DHT22;4266;48.816;9.154;2023-02-24T06:18:11;8.20;99.90
8459;DHT22;4266;48.816;9.154;2023-02-24T06:20:37;8.20;99.90
8459;DHT22;4266;48.816;9.154;2023-02-24T06:23:03;8.30;99.90
8459;DHT22;4266;48.816;9.154;2023-02-24T06:25:29;8.30;99.90
8459;DHT22;4266;48.816;9.154;2023-02-24T06:27:54;8.20;99.90
8459;DHT22;4266;48.816;9.154;2023-02-24T06:30:21;8.30;99.90
8459;DHT22;4266;48.816;9.154;2023-02-24T06:32:46;8.20;99.90
8459;DHT22;4266;48.816;9.154;2023-02-24T06:35:11;8.20;99.90
8459;DHT22;4266;48.816;9.154;2023-02-24T06:37:37;8.20;99.90
8459;DHT22;4266;48.816;9.154;2023-02-24T06:40:03;8.20;99.90
8459;DHT22;4266;48.816;9.154;2023-02-24T06:42:29;8.20;99.90
8459;DHT22;4266;48.816;9.154;2023-02-24T06:44:55;8.20;99.90
8459;DHT22;4266;48.816;9.154;2023-02-24T06:47:20;8.20;99.90
8459;DHT22;4266;48.816;9.154;2023-02-24T06:49:46;8.10;99.90
8459;DHT22;4266;48.816;9.154;2023-02-24T06:52:12;8.10;99.90
8459;DHT22;4266;48.816;9.154;2023-02-24T06:54:39;8.20;99.90
8459;DHT22;4266;48.816;9.154;2023-02-24T06:57:04;8.10;99.90
8459;DHT22;4266;48.816;9.154;2023-02-24T06:59:31;8.10;99.90
8459;DHT22;4266;48.816;9.154;2023-02-24T07:01:57;8.10;99.90
8459;DHT22;4266;48.816;9.154;2023-02-24T07:04:22;8.10;99.90
8459;DHT22;4266;48.816;9.154;2023-02-24T07:06:49;8.20;99.90
8459;DHT22;4266;48.816;9.154;2023-02-24T07:09:14;8.20;99.90
8459;DHT22;4266;48.816;9.154;2023-02-24T07:11:40;8.20;99.90
8459;DHT22;4266;48.816;9.154;2023-02-24T07:14:08;8.20;99.90
8459;DHT22;4266;48.816;9.154;2023-02-24T07:16:33;8.20;99.90
8459;DHT22;4266;48.816;9.154;2023-02-24T07:19:00;8.20;99.90
8459;DHT22;4266;48.816;9.154;2023-02-24T07:21:25;8.10;99.90
8459;DHT22;4266;48.816;9.154;2023-02-24T07:23:51;8.20;99.90
8459;DHT22;4266;48.816;9.154;2023-02-24T07:26:16;8.20;99.90
8459;DHT22;4266;48.816;9.154;2023-02-24T07:28:42;8.20;99.90
8459;DHT22;4266;48.816;9.154;2023-02-24T07:31:10;8.20;99.90
8459;DHT22;4266;48.816;9.154;2023-02-24T07:33:35;8.30;99.90
8459;DHT22;4266;48.816;9.154;2023-02-24T07:36:00;8.20;99.90
8459;DHT22;4266;48.816;9.154;2023-02-24T07:38:26;8.30;99.90
8459;DHT22;4266;48.816;9.154;2023-02-24T07:40:56;8.30;99.90
8459;DHT22;4266;48.816;9.154;2023-02-24T07:43:18;8.30;99.90
8459;DHT22;4266;48.816;9.154;2023-02-24T07:45:44;8.30;99.90
8459;DHT22;4266;48.816;9.154;2023-02-24T07:48:11;8.50;99.90
8459;DHT22;4266;48.816;9.154;2023-02-24T07:50:38;8.40;99.90
8459;DHT22;4266;48.816;9.154;2023-02-24T07:53:02;8.40;99.90
8459;DHT22;4266;48.816;9.154;2023-02-24T07:55:28;8.50;99.90
8459;DHT22;4266;48.816;9.154;2023-02-24T07:57:54;8.50;99.90
8459;DHT22;4266;48.816;9.154;2023-02-24T08:00:20;8.50;99.90
8459;DHT22;4266;48.816;9.154;2023-02-24T08:02:46;8.50;99.90
8459;DHT22;4266;48.816;9.154;2023-02-24T08:05:11;8.50;99.90
8459;DHT22;4266;48.816;9.154;2023-02-24T08:07:38;8.60;99.90
8459;DHT22;4266;48.816;9.154;2023-02-24T08:10:04;8.60;99.90
8459;DHT22;4266;48.816;9.154;2023-02-24T08:12:37;8.70;99.90
8459;DHT22;4266;48.816;9.154;2023-02-24T08:15:01;8.70;99.90
8459;DHT22;4266;48.816;9.154;2023-02-24T08:17:27;8.90;99.90
8459;DHT22;4266;48.816;9.154;2023-02-24T08:19:53;8.90;99.90
8459;DHT22;4266;48.816;9.154;2023-02-24T08:22:18;9.00;99.90
8459;DHT22;4266;48.816;9.154;2023-02-24T08:24:45;9.20;99.90
8459;DHT22;4266;48.816;9.154;2023-02-24T08:27:10;9.40;99.90
8459;DHT22;4266;48.816;9.154;2023-02-24T08:29:37;9.30;99.90
8459;DHT22;4266;48.816;9.154;2023-02-24T08:32:06;9.30;99.90
8459;DHT22;4266;48.816;9.154;2023-02-24T08:34:31;9.40;99.90
8459;DHT22;4266;48.816;9.154;2023-02-24T08:36:56;9.50;99.90
8459;DHT22;4266;48.816;9.154;2023-02-24T08:39:23;9.60;99.90
8459;DHT22;4266;48.816;9.154;2023-02-24T08:41:48;9.60;99.90
8459;DHT22;4266;48.816;9.154;2023-02-24T08:44:17;9.70;99.90
8459;DHT22;4266;48.816;9.154;2023-02-24T08:46:43;9.80;99.90
8459;DHT22;4266;48.816;9.154;2023-02-24T08:49:09;9.90;99.90
8459;DHT22;4266;48.816;9.154;2023-02-24T08:51:36;10.00;99.90
8459;DHT22;4266;48.816;9.154;2023-02-24T08:54:03;10.20;99.90
8459;DHT22;4266;48.816;9.154;2023-02-24T08:56:28;10.40;99.90
8459;DHT22;4266;48.816;9.154;2023-02-24T08:58:55;10.60;99.90
8459;DHT22;4266;48.816;9.154;2023-02-24T09:01:26;10.70;99.90
8459;DHT22;4266;48.816;9.154;2023-02-24T09:03:51;10.80;99.80
8459;DHT22;4266;48.816;9.154;2023-02-24T09:06:16;11.00;99.90
8459;DHT22;4266;48.816;9.154;2023-02-24T09:08:42;11.20;99.70
8459;DHT22;4266;48.816;9.154;2023-02-24T09:11:09;11.30;98.90
8459;DHT22;4266;48.816;9.154;2023-02-24T09:13:35;11.50;99.20
8459;DHT22;4266;48.816;9.154;2023-02-24T09:16:01;11.40;98.20
8459;DHT22;4266;48.816;9.154;2023-02-24T09:18:26;11.30;98.40
8459;DHT22;4266;48.816;9.154;2023-02-24T09:20:52;11.30;98.70
8459;DHT22;4266;48.816;9.154;2023-02-24T09:23:21;11.30;98.50
8459;DHT22;4266;48.816;9.154;2023-02-24T09:25:47;11.00;98.80
8459;DHT22;4266;48.816;9.154;2023-02-24T09:28:19;10.90;99.40
8459;DHT22;4266;48.816;9.154;2023-02-24T09:30:46;10.80;99.70
8459;DHT22;4266;48.816;9.154;2023-02-24T09:33:17;10.90;99.30
8459;DHT22;4266;48.816;9.154;2023-02-24T09:35:44;10.90;99.10
8459;DHT22;4266;48.816;9.154;2023-02-24T09:38:09;11.30;98.90
8459;DHT22;4266;48.816;9.154;2023-02-24T09:40:37;11.30;98.90
8459;DHT22;4266;48.816;9.154;2023-02-24T09:43:26;11.50;98.40
8459;DHT22;4266;48.816;9.154;2023-02-24T09:45:55;11.80;98.00
8459;DHT22;4266;48.816;9.154;2023-02-24T09:48:25;12.10;97.10
8459;DHT22;4266;48.816;9.154;2023-02-24T09:50:49;12.90;96.20
8459;DHT22;4266;48.816;9.154;2023-02-24T09:53:21;12.90;96.10
8459;DHT22;4266;48.816;9.154;2023-02-24T09:55:49;12.80;96.00
8459;DHT22;4266;48.816;9.154;2023-02-24T09:58:18;12.80;96.00
8459;DHT22;4266;48.816;9.154;2023-02-24T10:01:12;12.80;95.90
8459;DHT22;4266;48.816;9.154;2023-02-24T10:03:40;12.70;95.60
8459;DHT22;4266;48.816;9.154;2023-02-24T10:06:17;12.40;95.70
8459;DHT22;4266;48.816;9.154;2023-02-24T10:08:44;12.20;95.90
8459;DHT22;4266;48.816;9.154;2023-02-24T10:11:10;12.20;95.90
8459;DHT22;4266;48.816;9.154;2023-02-24T10:13:40;12.30;95.60
8459;DHT22;4266;48.816;9.154;2023-02-24T10:16:03;12.30;95.80
8459;DHT22;4266;48.816;9.154;2023-02-24T10:18:41;12.40;95.00
8459;DHT22;4266;48.816;9.154;2023-02-24T10:21:19;12.30;95.20
8459;DHT22;4266;48.816;9.154;2023-02-24T10:23:52;12.60;94.80
8459;DHT22;4266;48.816;9.154;2023-02-24T10:26:18;12.30;94.80
8459;DHT22;4266;48.816;9.154;2023-02-24T10:28:49;12.30;94.90
8459;DHT22;4266;48.816;9.154;2023-02-24T10:31:17;12.50;94.70
8459;DHT22;4266;48.816;9.154;2023-02-24T10:33:46;12.10;95.00
8459;DHT22;4266;48.816;9.154;2023-02-24T10:36:16;12.00;95.10
8459;DHT22;4266;48.816;9.154;2023-02-24T10:38:37;11.70;95.60
8459;DHT22;4266;48.816;9.154;2023-02-24T10:41:03;11.70;95.70
8459;DHT22;4266;48.816;9.154;2023-02-24T10:43:29;11.60;95.60
8459;DHT22;4266;48.816;9.154;2023-02-24T10:45:55;11.60;95.90
8459;DHT22;4266;48.816;9.154;2023-02-24T10:48:23;11.50;95.90
8459;DHT22;4266;48.816;9.154;2023-02-24T10:50:51;11.20;96.00
8459;DHT22;4266;48.816;9.154;2023-02-24T10:53:16;11.20;96.20
8459;DHT22;4266;48.816;9.154;2023-02-24T10:55:57;11.40;96.40
8459;DHT22;4266;48.816;9.154;2023-02-24T10:58:29;11.30;96.40
8459;DHT22;4266;48.816;9.154;2023-02-24T11:00:55;11.30;96.40
8459;DHT22;4266;48.816;9.154;2023-02-24T11:03:26;11.30;96.30
8459;DHT22;4266;48.816;9.154;2023-02-24T11:05:57;11.40;96.30
8459;DHT22;4266;48.816;9.154;2023-02-24T11:08:35;11.30;96.10
8459;DHT22;4266;48.816;9.154;2023-02-24T11:13:35;11.40;96.20
8459;DHT22;4266;48.816;9.154;2023-02-24T11:16:07;11.40;96.20
8459;DHT22;4266;48.816;9.154;2023-02-24T11:18:38;11.50;96.20
8459;DHT22;4266;48.816;9.154;2023-02-24T11:21:06;11.40;96.10
8459;DHT22;4266;48.816;9.154;2023-02-24T11:23:35;11.20;96.20
8459;DHT22;4266;48.816;9.154;2023-02-24T11:26:01;11.30;96.40
8459;DHT22;4266;48.816;9.154;2023-02-24T11:31:23;11.30;96.50
8459;DHT22;4266;48.816;9.154;2023-02-24T11:34:06;11.20;96.60
8459;DHT22;4266;48.816;9.154;2023-02-24T11:36:37;11.10;96.40
8459;DHT22;4266;48.816;9.154;2023-02-24T11:41:49;11.10;96.50
8459;DHT22;4266;48.816;9.154;2023-02-24T11:44:16;11.00;96.50
8459;DHT22;4266;48.816;9.154;2023-02-24T11:46:42;11.00;96.40
8459;DHT22;4266;48.816;9.154;2023-02-24T11:49:13;11.00;96.50
8459;DHT22;4266;48.816;9.154;2023-02-24T11:51:33;11.00;96.40
8459;DHT22;4266;48.816;9.154;2023-02-24T11:54:01;10.90;96.70
8459;DHT22;4266;48.816;9.154;2023-02-24T11:56:27;10.90;96.70
8459;DHT22;4266;48.816;9.154;2023-02-24T11:58:55;10.80;96.60
8459;DHT22;4266;48.816;9.154;2023-02-24T12:01:25;10.90;96.70
8459;DHT22;4266;48.816;9.154;2023-02-24T12:03:51;10.80;96.90
8459;DHT22;4266;48.816;9.154;2023-02-24T12:06:20;11.00;97.10
8459;DHT22;4266;48.816;9.154;2023-02-24T12:08:44;11.10;96.40
8459;DHT22;4266;48.816;9.154;2023-02-24T12:11:28;11.00;96.70
8459;DHT22;4266;48.816;9.154;2023-02-24T12:13:55;11.20;97.10
8459;DHT22;4266;48.816;9.154;2023-02-24T12:16:24;11.50;96.60
8459;DHT22;4266;48.816;9.154;2023-02-24T12:18:51;11.60;96.50
8459;DHT22;4266;48.816;9.154;2023-02-24T12:23:56;12.00;95.70
8459;DHT22;4266;48.816;9.154;2023-02-24T12:26:24;12.30;95.70
8459;DHT22;4266;48.816;9.154;2023-02-24T12:29:14;12.80;95.30
8459;DHT22;4266;48.816;9.154;2023-02-24T12:31:39;12.90;94.70
8459;DHT22;4266;48.816;9.154;2023-02-24T12:34:10;12.90;94.50
8459;DHT22;4266;48.816;9.154;2023-02-24T12:36:47;12.90;94.50
8459;DHT22;4266;48.816;9.154;2023-02-24T12:39:12;12.80;94.50
8459;DHT22;4266;48.816;9.154;2023-02-24T12:41:43;12.80;94.20
8459;DHT22;4266;48.816;9.154;2023-02-24T12:44:14;13.00;93.90
8459;DHT22;4266;48.816;9.154;2023-02-24T12:46:36;13.30;93.30
8459;DHT22;4266;48.816;9.154;2023-02-24T12:54:45;14.20;92.90
8459;DHT22;4266;48.816;9.154;2023-02-24T12:57:10;14.20;92.90
8459;DHT22;4266;48.816;9.154;2023-02-24T12:59:37;14.00;93.10
8459;DHT22;4266;48.816;9.154;2023-02-24T13:02:05;14.10;93.10
8459;DHT22;4266;48.816;9.154;2023-02-24T13:10:18;14.10;91.80
8459;DHT22;4266;48.816;9.154;2023-02-24T13:13:18;13.80;91.40
8459;DHT22;4266;48.816;9.154;2023-02-24T13:15:24;13.80;91.40
8459;DHT22;4266;48.816;9.154;2023-02-24T13:17:49;13.60;90.90
8459;DHT22;4266;48.816;9.154;2023-02-24T13:20:27;13.30;91.20
8459;DHT22;4266;48.816;9.154;2023-02-24T13:22:52;13.30;92.40
8459;DHT22;4266;48.816;9.154;2023-02-24T13:25:19;13.10;92.80
8459;DHT22;4266;48.816;9.154;2023-02-24T13:27:52;12.60;93.10
8459;DHT22;4266;48.816;9.154;2023-02-24T13:30:34;12.50;93.40
8459;DHT22;4266;48.816;9.154;2023-02-24T13:33:20;12.40;93.70
8459;DHT22;4266;48.816;9.154;2023-02-24T13:35:47;12.20;93.90
8459;DHT22;4266;48.816;9.154;2023-02-24T13:38:23;12.00;94.00
8459;DHT22;4266;48.816;9.154;2023-02-24T13:55:19;11.80;94.50
8459;DHT22;4266;48.816;9.154;2023-02-24T14:00:51;11.90;94.40
8459;DHT22;4266;48.816;9.154;2023-02-24T14:03:17;11.90;94.20
8459;DHT22;4266;48.816;9.154;2023-02-24T14:05:40;11.90;94.20
8459;DHT22;4266;48.816;9.154;2023-02-24T14:08:16;11.70;94.20
8459;DHT22;4266;48.816;9.154;2023-02-24T14:10:42;11.70;94.40
8459;DHT22;4266;48.816;9.154;2023-02-24T14:13:07;11.60;94.50
8459;DHT22;4266;48.816;9.154;2023-02-24T14:15:31;11.60;94.50
8459;DHT22;4266;48.816;9.154;2023-02-24T14:17:58;11.30;94.50
8459;DHT22;4266;48.816;9.154;2023-02-24T14:20:25;11.30;94.50
8459;DHT22;4266;48.816;9.154;2023-02-24T14:22:52;11.30;94.30
8459;DHT22;4266;48.816;9.154;2023-02-24T14:25:18;11.20;94.70
8459;DHT22;4266;48.816;9.154;2023-02-24T14:27:45;11.20;94.30
8459;DHT22;4266;48.816;9.154;2023-02-24T14:30:20;11.20;94.40
8459;DHT22;4266;48.816;9.154;2023-02-24T14:32:46;11.20;94.40
8459;DHT22;4266;48.816;9.154;2023-02-24T14:35:17;11.20;94.40
8459;DHT22;4266;48.816;9.154;2023-02-24T14:37:42;11.00;94.80
8459;DHT22;4266;48.816;9.154;2023-02-24T14:40:12;11.00;94.90
8459;DHT22;4266;48.816;9.154;2023-02-24T14:42:44;11.00;94.80
8459;DHT22;4266;48.816;9.154;2023-02-24T14:45:14;10.90;94.80
8459;DHT22;4266;48.816;9.154;2023-02-24T14:47:29;10.90;94.80
8459;DHT22;4266;48.816;9.154;2023-02-24T14:49:55;10.90;94.90
8459;DHT22;4266;48.816;9.154;2023-02-24T14:52:38;10.80;94.90
8459;DHT22;4266;48.816;9.154;2023-02-24T14:55:15;10.70;95.30
8459;DHT22;4266;48.816;9.154;2023-02-24T14:57:43;10.70;95.20
8459;DHT22;4266;48.816;9.154;2023-02-24T15:00:12;10.70;95.40
8459;DHT22;4266;48.816;9.154;2023-02-24T15:02:38;10.60;95.20
8459;DHT22;4266;48.816;9.154;2023-02-24T15:05:03;10.50;95.20
8459;DHT22;4266;48.816;9.154;2023-02-24T15:07:29;10.60;95.20
8459;DHT22;4266;48.816;9.154;2023-02-24T15:09:55;10.40;95.50
8459;DHT22;4266;48.816;9.154;2023-02-24T15:12:26;10.40;95.50
8459;DHT22;4266;48.816;9.154;2023-02-24T15:14:53;10.40;95.40
8459;DHT22;4266;48.816;9.154;2023-02-24T15:17:18;10.30;95.50
8459;DHT22;4266;48.816;9.154;2023-02-24T15:19:44;10.40;95.60
8459;DHT22;4266;48.816;9.154;2023-02-24T15:22:19;10.50;95.30
8459;DHT22;4266;48.816;9.154;2023-02-24T15:24:44;10.40;95.30
8459;DHT22;4266;48.816;9.154;2023-02-24T15:27:23;10.40;95.20
8459;DHT22;4266;48.816;9.154;2023-02-24T15:29:57;10.20;95.30
8459;DHT22;4266;48.816;9.154;2023-02-24T15:32:22;10.20;95.30
8459;DHT22;4266;48.816;9.154;2023-02-24T15:34:47;10.20;95.40
8459;DHT22;4266;48.816;9.154;2023-02-24T15:37:14;10.30;95.40
8459;DHT22;4266;48.816;9.154;2023-02-24T15:39:40;10.30;95.30
8459;DHT22;4266;48.816;9.154;2023-02-24T15:42:23;10.10;95.80
8459;DHT22;4266;48.816;9.154;2023-02-24T15:44:52;10.10;95.80
8459;DHT22;4266;48.816;9.154;2023-02-24T15:47:22;10.20;95.80
8459;DHT22;4266;48.816;9.154;2023-02-24T15:49:46;10.20;95.80
8459;DHT22;4266;48.816;9.154;2023-02-24T15:52:12;10.10;95.80
8459;DHT22;4266;48.816;9.154;2023-02-24T15:54:38;10.00;95.70
8459;DHT22;4266;48.816;9.154;2023-02-24T15:57:05;10.00;96.40
8459;DHT22;4266;48.816;9.154;2023-02-24T15:59:30;9.90;96.70
8459;DHT22;4266;48.816;9.154;2023-02-24T16:01:56;10.00;96.00
8459;DHT22;4266;48.816;9.154;2023-02-24T16:04:23;10.00;96.10
8459;DHT22;4266;48.816;9.154;2023-02-24T16:06:50;10.00;96.10
8459;DHT22;4266;48.816;9.154;2023-02-24T16:09:27;10.00;96.10
8459;DHT22;4266;48.816;9.154;2023-02-24T16:11:50;10.00;96.00
8459;DHT22;4266;48.816;9.154;2023-02-24T16:14:16;9.90;96.70
8459;DHT22;4266;48.816;9.154;2023-02-24T16:16:41;9.90;96.70
8459;DHT22;4266;48.816;9.154;2023-02-24T16:19:09;9.80;97.00
8459;DHT22;4266;48.816;9.154;2023-02-24T16:21:33;9.80;97.20
8459;DHT22;4266;48.816;9.154;2023-02-24T16:23:58;9.70;97.30
8459;DHT22;4266;48.816;9.154;2023-02-24T16:26:24;9.70;97.80
8459;DHT22;4266;48.816;9.154;2023-02-24T16:28:53;9.60;97.70
8459;DHT22;4266;48.816;9.154;2023-02-24T16:31:18;9.70;97.90
8459;DHT22;4266;48.816;9.154;2023-02-24T16:33:43;9.60;98.20
8459;DHT22;4266;48.816;9.154;2023-02-24T16:36:09;9.60;97.90
8459;DHT22;4266;48.816;9.154;2023-02-24T16:38:35;9.60;97.90
8459;DHT22;4266;48.816;9.154;2023-02-24T16:41:01;9.60;98.10
8459;DHT22;4266;48.816;9.154;2023-02-24T16:43:27;9.50;98.10
8459;DHT22;4266;48.816;9.154;2023-02-24T16:45:53;9.40;98.30
8459;DHT22;4266;48.816;9.154;2023-02-24T16:48:21;9.30;98.20
8459;DHT22;4266;48.816;9.154;2023-02-24T16:50:46;9.40;98.80
8459;DHT22;4266;48.816;9.154;2023-02-24T16:53:14;9.30;98.70
8459;DHT22;4266;48.816;9.154;2023-02-24T16:55:39;9.30;99.20
8459;DHT22;4266;48.816;9.154;2023-02-24T16:58:04;9.30;99.50
8459;DHT22;4266;48.816;9.154;2023-02-24T17:00:30;9.20;99.50
8459;DHT22;4266;48.816;9.154;2023-02-24T17:02:56;9.10;99.90
8459;DHT22;4266;48.816;9.154;2023-02-24T17:05:23;9.10;99.90
8459;DHT22;4266;48.816;9.154;2023-02-24T17:07:48;9.10;99.90
8459;DHT22;4266;48.816;9.154;2023-02-24T17:10:14;9.10;99.90